Time;durP1;ratioP1;P1;durP2;ratioP2;P2;SDS_P1;SDS_P2;PMS_P1;PMS_P2;Temp;Humidity;BMP_temperature;BMP_pressure;BME280_temperature;BME280_humidity;BME280_pressure;Samples;Min_cycle;Max_cycle;Signal;HPM_P1;HPM_P2
2024/01/30 06:01:50;;;;;;;23.57;12.40;;;;;;;;;;5347712;23;20598;-78
2024/01/30 06:04:16;;;;;;;26.93;11.53;;;;;;;;;;4959061;29;20488;-79
2024/01/30 06:06:42;;;;;;;27.93;12.73;;;;;;;;;;4961676;29;20444;-81
2024/01/30 06:09:09;;;;;;;22.83;11.63;;;;;;;;;;4962331;29;20476;-78
2024/01/30 06:11:35;;;;;;;24.83;12.40;;;;;;;;;;4957340;28;20479;-79
2024/01/30 06:14:01;;;;;;;22.23;12.53;;;;;;;;;;4954784;29;20460;-78
2024/01/30 06:16:29;;;;;;;29.97;12.80;;;;;;;;;;4956122;29;20927;-80
2024/01/30 06:18:55;;;;;;;44.47;13.33;;;;;;;;;;4959070;28;20417;-80
2024/01/30 06:21:21;;;;;;;20.97;11.23;;;;;;;;;;4956737;28;20520;-80
2024/01/30 06:23:47;;;;;;;23.43;12.90;;;;;;;;;;4957039;29;20925;-80
2024/01/30 06:26:13;;;;;;;31.50;13.17;;;;;;;;;;4958149;29;20412;-80
2024/01/30 06:28:39;;;;;;;24.53;11.50;;;;;;;;;;4956167;29;20527;-80
2024/01/30 06:31:05;;;;;;;21.50;11.47;;;;;;;;;;4956773;28;20507;-80
2024/01/30 06:33:31;;;;;;;21.50;11.93;;;;;;;;;;4959754;29;20448;-79
2024/01/30 06:35:57;;;;;;;20.67;10.97;;;;;;;;;;4963351;29;20503;-80
2024/01/30 06:38:23;;;;;;;28.17;13.70;;;;;;;;;;4959973;29;20488;-81
2024/01/30 06:40:49;;;;;;;21.23;11.50;;;;;;;;;;4957814;28;20444;-81
2024/01/30 06:43:15;;;;;;;25.77;13.40;;;;;;;;;;4957434;29;20444;-81
2024/01/30 06:45:42;;;;;;;27.93;12.27;;;;;;;;;;4957866;29;20435;-81
2024/01/30 06:48:08;;;;;;;27.43;13.07;;;;;;;;;;4957435;29;20485;-81
2024/01/30 06:50:34;;;;;;;29.00;13.80;;;;;;;;;;4959459;28;20457;-81
2024/01/30 06:53:00;;;;;;;20.70;12.20;;;;;;;;;;4958705;29;20417;-82
2024/01/30 06:55:26;;;;;;;29.33;12.47;;;;;;;;;;4957060;29;20460;-81
2024/01/30 06:57:52;;;;;;;25.90;12.60;;;;;;;;;;4956609;29;20436;-82
2024/01/30 07:00:19;;;;;;;26.40;11.17;;;;;;;;;;4956512;28;20452;-81
2024/01/30 07:02:45;;;;;;;26.23;11.00;;;;;;;;;;4958027;28;20449;-81
2024/01/30 07:05:11;;;;;;;26.17;13.00;;;;;;;;;;4957152;29;20432;-81
2024/01/30 07:07:37;;;;;;;24.23;12.90;;;;;;;;;;4958122;29;20416;-82
2024/01/30 07:10:03;;;;;;;26.10;12.37;;;;;;;;;;4957575;29;20424;-80
2024/01/30 07:12:31;;;;;;;31.80;14.33;;;;;;;;;;4958528;28;20496;-80
2024/01/30 07:14:59;;;;;;;29.00;14.00;;;;;;;;;;4957917;29;20464;-81
2024/01/30 07:17:25;;;;;;;23.40;11.30;;;;;;;;;;4957463;28;20424;-82
2024/01/30 07:19:51;;;;;;;23.73;13.47;;;;;;;;;;4958467;29;20792;-80
2024/01/30 07:22:17;;;;;;;22.70;12.03;;;;;;;;;;4962765;28;20833;-81
2024/01/30 07:24:49;;;;;;;21.77;11.80;;;;;;;;;;4960361;29;20439;-81
2024/01/30 07:27:17;;;;;;;34.20;13.30;;;;;;;;;;4958054;28;20421;-81
2024/01/30 07:29:43;;;;;;;21.93;12.23;;;;;;;;;;4957620;28;20427;-81
2024/01/30 07:32:09;;;;;;;25.03;13.10;;;;;;;;;;4958271;28;20440;-81
2024/01/30 07:34:36;;;;;;;26.57;12.00;;;;;;;;;;4963889;29;20452;-80
2024/01/30 07:37:02;;;;;;;27.90;11.83;;;;;;;;;;4961260;29;20416;-81
2024/01/30 07:39:28;;;;;;;25.23;12.30;;;;;;;;;;4961036;29;20413;-82
2024/01/30 07:41:54;;;;;;;27.70;13.13;;;;;;;;;;4961613;28;20464;-82
2024/01/30 07:44:21;;;;;;;26.77;13.00;;;;;;;;;;4959528;29;20428;-82
2024/01/30 07:46:46;;;;;;;31.37;12.17;;;;;;;;;;4960717;29;20412;-81
2024/01/30 07:49:14;;;;;;;23.60;12.60;;;;;;;;;;4959924;29;20421;-82
2024/01/30 07:51:40;;;;;;;29.00;12.57;;;;;;;;;;4960816;28;20472;-81
2024/01/30 07:54:06;;;;;;;34.80;12.80;;;;;;;;;;4964415;29;20468;-81
2024/01/30 07:56:32;;;;;;;27.17;12.10;;;;;;;;;;4962209;29;20417;-80
2024/01/30 07:58:58;;;;;;;26.87;11.80;;;;;;;;;;4962790;29;20496;-82
2024/01/30 08:01:24;;;;;;;25.40;12.77;;;;;;;;;;4962997;28;21055;-80
2024/01/30 08:03:50;;;;;;;22.47;11.57;;;;;;;;;;4961592;29;20447;-81
2024/01/30 08:06:15;;;;;;;29.03;12.17;;;;;;;;;;4961574;29;20440;-78
2024/01/30 08:08:41;;;;;;;30.20;12.47;;;;;;;;;;4960173;29;20428;-80
2024/01/30 08:11:07;;;;;;;23.40;11.47;;;;;;;;;;4960865;28;20437;-82
2024/01/30 08:13:33;;;;;;;25.40;12.23;;;;;;;;;;4960113;29;20471;-82
2024/01/30 08:15:59;;;;;;;22.30;11.40;;;;;;;;;;4962507;29;20423;-80
2024/01/30 08:18:26;;;;;;;22.60;11.73;;;;;;;;;;4960334;29;20421;-81
2024/01/30 08:20:52;;;;;;;27.60;11.73;;;;;;;;;;4959491;28;20451;-82
2024/01/30 08:23:18;;;;;;;24.23;10.40;;;;;;;;;;4959946;29;20425;-81
2024/01/30 08:25:44;;;;;;;22.00;11.80;;;;;;;;;;4961503;29;20420;-80
2024/01/30 08:28:10;;;;;;;27.33;11.73;;;;;;;;;;4965330;29;20850;-81
2024/01/30 08:30:36;;;;;;;24.93;12.37;;;;;;;;;;4962863;28;20432;-82
2024/01/30 08:33:02;;;;;;;19.70;10.67;;;;;;;;;;4960843;29;20416;-81
2024/01/30 08:35:31;;;;;;;20.57;11.40;;;;;;;;;;4960724;28;20464;-82
2024/01/30 08:37:57;;;;;;;21.07;11.33;;;;;;;;;;4966471;28;20460;-83
2024/01/30 08:40:23;;;;;;;22.33;10.87;;;;;;;;;;4980399;28;20405;-83
2024/01/30 08:42:49;;;;;;;21.67;11.07;;;;;;;;;;4961564;29;20780;-81
2024/01/30 08:45:15;;;;;;;26.73;10.50;;;;;;;;;;4960777;28;20424;-82
2024/01/30 08:47:41;;;;;;;21.87;11.13;;;;;;;;;;4961103;29;20413;-80
2024/01/30 08:50:07;;;;;;;26.73;12.10;;;;;;;;;;4976220;29;20472;-79
2024/01/30 08:52:34;;;;;;;19.90;11.57;;;;;;;;;;4976281;28;20447;-82
2024/01/30 08:55:00;;;;;;;19.50;11.30;;;;;;;;;;4962440;28;20464;-82
2024/01/30 08:57:29;;;;;;;25.07;12.83;;;;;;;;;;4958376;29;20427;-82
2024/01/30 08:59:55;;;;;;;24.73;12.73;;;;;;;;;;4959361;29;20412;-82
2024/01/30 09:02:21;;;;;;;24.47;12.37;;;;;;;;;;4958668;28;20967;-79
2024/01/30 09:04:47;;;;;;;29.17;13.53;;;;;;;;;;4959445;29;20420;-81
2024/01/30 09:07:13;;;;;;;28.60;12.50;;;;;;;;;;4959029;28;20413;-78
2024/01/30 09:09:42;;;;;;;28.17;13.70;;;;;;;;;;4964492;29;20932;-80
2024/01/30 09:12:11;;;;;;;27.50;13.73;;;;;;;;;;4962235;28;20440;-80
2024/01/30 09:14:37;;;;;;;28.33;14.33;;;;;;;;;;4955962;29;20471;-80
2024/01/30 09:17:03;;;;;;;26.33;12.73;;;;;;;;;;4956445;29;20486;-80
2024/01/30 09:19:29;;;;;;;30.40;14.30;;;;;;;;;;4956189;29;20417;-80
2024/01/30 09:21:55;;;;;;;30.73;14.37;;;;;;;;;;4957841;28;20792;-80
2024/01/30 09:24:21;;;;;;;34.43;14.70;;;;;;;;;;4956584;29;20428;-80
2024/01/30 09:26:47;;;;;;;33.83;14.47;;;;;;;;;;4958874;29;20428;-80
2024/01/30 09:29:13;;;;;;;33.13;14.53;;;;;;;;;;4960891;29;20432;-80
2024/01/30 09:31:39;;;;;;;23.90;13.57;;;;;;;;;;4978626;28;20441;-81
2024/01/30 09:34:05;;;;;;;23.60;13.30;;;;;;;;;;4979490;28;20472;-81
2024/01/30 09:36:32;;;;;;;29.30;13.00;;;;;;;;;;4971223;28;20508;-81
2024/01/30 09:38:58;;;;;;;24.63;12.40;;;;;;;;;;4961944;29;20475;-81
2024/01/30 09:41:25;;;;;;;31.10;15.20;;;;;;;;;;4959271;28;20440;-81
2024/01/30 09:43:51;;;;;;;29.73;14.07;;;;;;;;;;4960152;28;20421;-81
2024/01/30 09:46:21;;;;;;;33.03;14.07;;;;;;;;;;4957800;29;20839;-80
2024/01/30 09:48:47;;;;;;;46.93;14.07;;;;;;;;;;4958405;29;20409;-80
2024/01/30 09:51:16;;;;;;;34.27;13.97;;;;;;;;;;4957636;28;20519;-80
2024/01/30 09:53:44;;;;;;;31.83;13.13;;;;;;;;;;4958837;29;20543;-80
2024/01/30 09:56:11;;;;;;;29.90;13.30;;;;;;;;;;4957260;28;20425;-80
2024/01/30 09:58:37;;;;;;;27.70;11.47;;;;;;;;;;4956666;29;20448;-81
2024/01/30 10:01:03;;;;;;;29.43;13.90;;;;;;;;;;4958190;28;20871;-80
2024/01/30 10:03:29;;;;;;;31.83;12.70;;;;;;;;;;4956803;29;20425;-81
2024/01/30 10:05:55;;;;;;;28.97;13.63;;;;;;;;;;4956137;29;20421;-80
2024/01/30 10:08:21;;;;;;;32.53;14.13;;;;;;;;;;4957783;29;20409;-80
2024/01/30 10:10:47;;;;;;;28.00;13.83;;;;;;;;;;4956551;28;20474;-80
2024/01/30 10:13:14;;;;;;;26.43;13.30;;;;;;;;;;4956560;29;20417;-80
2024/01/30 10:15:40;;;;;;;24.70;12.77;;;;;;;;;;4957713;29;20593;-80
2024/01/30 10:18:06;;;;;;;33.27;13.37;;;;;;;;;;4956277;29;20428;-80
2024/01/30 10:20:32;;;;;;;27.40;14.03;;;;;;;;;;4958016;28;21063;-81
2024/01/30 10:22:58;;;;;;;25.17;12.77;;;;;;;;;;4957345;29;20589;-80
2024/01/30 10:25:26;;;;;;;29.43;13.13;;;;;;;;;;4956154;29;20535;-80
2024/01/30 10:27:55;;;;;;;23.77;13.23;;;;;;;;;;4957493;29;20472;-80
2024/01/30 10:30:24;;;;;;;34.00;14.73;;;;;;;;;;4957455;28;20409;-80
2024/01/30 10:32:50;;;;;;;30.07;13.30;;;;;;;;;;4957511;29;20505;-80
2024/01/30 10:35:16;;;;;;;31.10;14.40;;;;;;;;;;4961975;29;20467;-80
2024/01/30 10:37:47;;;;;;;30.40;14.50;;;;;;;;;;4964755;29;20429;-80
2024/01/30 10:40:14;;;;;;;28.33;13.87;;;;;;;;;;4964247;28;20413;-80
2024/01/30 10:42:42;;;;;;;29.60;14.70;;;;;;;;;;4973563;28;20436;-81
2024/01/30 10:45:18;;;;;;;30.10;13.83;;;;;;;;;;4977467;28;20485;-81
2024/01/30 10:47:48;;;;;;;32.80;14.33;;;;;;;;;;4964054;28;20419;-81
2024/01/30 10:50:14;;;;;;;38.20;14.90;;;;;;;;;;4959223;28;20479;-80
2024/01/30 10:52:42;;;;;;;29.80;15.00;;;;;;;;;;4958375;29;20416;-81
2024/01/30 10:55:08;;;;;;;31.93;16.07;;;;;;;;;;4957241;29;20843;-80
2024/01/30 10:57:37;;;;;;;24.93;14.43;;;;;;;;;;4958025;29;20409;-80
2024/01/30 11:00:05;;;;;;;28.80;13.80;;;;;;;;;;4956669;29;20940;-80
2024/01/30 11:02:32;;;;;;;30.27;14.23;;;;;;;;;;4957687;28;20452;-80
2024/01/30 11:04:58;;;;;;;33.80;15.53;;;;;;;;;;4956136;29;20837;-80
2024/01/30 11:07:28;;;;;;;29.27;13.10;;;;;;;;;;4958271;28;20435;-81
2024/01/30 11:10:01;;;;;;;24.37;13.30;;;;;;;;;;4960376;29;20504;-80
2024/01/30 11:12:27;;;;;;;26.20;12.87;;;;;;;;;;4960649;28;20432;-80
2024/01/30 11:15:04;;;;;;;24.70;14.80;;;;;;;;;;4958715;29;20530;-79
2024/01/30 11:17:40;;;;;;;25.23;12.53;;;;;;;;;;4958855;28;20413;-79
2024/01/30 11:20:06;;;;;;;29.00;12.87;;;;;;;;;;4958222;29;20851;-79
2024/01/30 11:22:32;;;;;;;30.43;13.87;;;;;;;;;;4958559;28;20527;-79
2024/01/30 11:24:59;;;;;;;26.77;13.43;;;;;;;;;;4959793;29;20436;-79
2024/01/30 11:27:27;;;;;;;31.97;13.20;;;;;;;;;;4958676;29;20429;-79
2024/01/30 11:29:53;;;;;;;27.03;12.63;;;;;;;;;;4964121;29;20839;-79
2024/01/30 11:32:24;;;;;;;35.17;15.03;;;;;;;;;;4959225;28;20444;-79
2024/01/30 11:34:50;;;;;;;21.00;12.77;;;;;;;;;;4959967;29;20471;-79
2024/01/30 11:37:16;;;;;;;27.47;13.23;;;;;;;;;;4959881;29;20416;-80
2024/01/30 11:39:43;;;;;;;30.40;11.30;;;;;;;;;;4960290;29;20408;-79
2024/01/30 11:42:09;;;;;;;27.73;13.43;;;;;;;;;;4960613;28;20436;-80
2024/01/30 11:44:35;;;;;;;24.33;12.10;;;;;;;;;;4960661;29;20464;-79
2024/01/30 11:47:03;;;;;;;30.03;13.83;;;;;;;;;;4958251;29;20425;-79
2024/01/30 11:49:29;;;;;;;27.80;13.40;;;;;;;;;;4959346;29;20428;-79
2024/01/30 11:51:55;;;;;;;27.97;12.40;;;;;;;;;;4959616;28;20869;-79
2024/01/30 11:54:21;;;;;;;32.07;12.43;;;;;;;;;;4959947;29;20543;-80
2024/01/30 11:56:47;;;;;;;34.27;11.97;;;;;;;;;;4960627;28;20416;-79
2024/01/30 11:59:14;;;;;;;25.03;11.67;;;;;;;;;;4961559;29;20409;-80
2024/01/30 12:01:40;;;;;;;28.73;11.97;;;;;;;;;;4960839;28;20538;-80
2024/01/30 12:04:08;;;;;;;24.73;12.00;;;;;;;;;;4961107;29;20456;-80
2024/01/30 12:06:35;;;;;;;23.20;11.80;;;;;;;;;;4958773;29;20428;-80
2024/01/30 12:09:07;;;;;;;22.70;11.87;;;;;;;;;;4959945;28;20432;-80
2024/01/30 12:11:33;;;;;;;26.90;12.60;;;;;;;;;;4959899;28;20433;-79
2024/01/30 12:13:59;;;;;;;30.83;14.33;;;;;;;;;;4958841;29;20823;-78
2024/01/30 12:16:25;;;;;;;34.80;12.40;;;;;;;;;;4960511;29;20429;-80
2024/01/30 12:19:00;;;;;;;32.00;13.37;;;;;;;;;;4961268;28;20428;-81
2024/01/30 12:21:26;;;;;;;21.83;11.80;;;;;;;;;;4966611;28;20424;-80
2024/01/30 12:23:52;;;;;;;31.57;12.80;;;;;;;;;;4964175;29;20472;-81
2024/01/30 12:26:18;;;;;;;25.40;11.33;;;;;;;;;;4976039;28;20420;-79
2024/01/30 12:28:48;;;;;;;27.20;13.00;;;;;;;;;;4979768;28;20425;-79
2024/01/30 12:31:14;;;;;;;26.17;12.00;;;;;;;;;;4980178;28;20468;-79
2024/01/30 12:33:40;;;;;;;28.77;12.30;;;;;;;;;;4979449;28;20483;-79
2024/01/30 12:36:06;;;;;;;26.73;13.63;;;;;;;;;;4978668;28;20432;-80
2024/01/30 12:38:32;;;;;;;29.10;12.50;;;;;;;;;;4977899;28;20438;-81
2024/01/30 12:40:58;;;;;;;29.47;12.53;;;;;;;;;;4977865;28;20437;-79
2024/01/30 12:43:25;;;;;;;32.60;12.63;;;;;;;;;;4979474;28;20408;-79
2024/01/30 12:45:51;;;;;;;32.23;12.73;;;;;;;;;;4979757;28;20468;-80
2024/01/30 12:48:17;;;;;;;32.47;13.20;;;;;;;;;;4980203;28;20439;-80
2024/01/30 12:50:43;;;;;;;26.33;12.37;;;;;;;;;;4979250;28;20463;-79
2024/01/30 12:53:09;;;;;;;33.20;14.17;;;;;;;;;;4979431;28;20433;-79
2024/01/30 12:55:35;;;;;;;25.43;12.90;;;;;;;;;;4977748;29;20456;-81
2024/01/30 12:58:01;;;;;;;33.23;13.70;;;;;;;;;;4976140;29;20519;-81
2024/01/30 13:00:27;;;;;;;29.83;13.77;;;;;;;;;;4972583;28;20433;-81
2024/01/30 13:02:53;;;;;;;33.33;13.03;;;;;;;;;;4976621;28;20492;-81
2024/01/30 13:05:19;;;;;;;28.47;12.33;;;;;;;;;;4978086;28;20405;-80
2024/01/30 13:07:45;;;;;;;37.10;15.67;;;;;;;;;;4976946;28;20437;-79
2024/01/30 13:10:11;;;;;;;28.03;13.17;;;;;;;;;;4977369;28;20436;-79
2024/01/30 13:12:38;;;;;;;29.27;13.67;;;;;;;;;;4977225;29;20477;-79
2024/01/30 13:15:04;;;;;;;27.27;13.27;;;;;;;;;;4976140;29;20476;-79
2024/01/30 13:17:31;;;;;;;29.47;13.00;;;;;;;;;;4974916;28;20455;-73
2024/01/30 13:19:56;;;;;;;28.33;13.50;;;;;;;;;;4958950;29;20436;-73
2024/01/30 13:22:22;;;;;;;32.43;13.93;;;;;;;;;;4960897;28;20437;-72
2024/01/30 13:24:48;;;;;;;26.90;12.50;;;;;;;;;;4962143;29;20427;-73
2024/01/30 13:27:14;;;;;;;24.83;13.40;;;;;;;;;;4961290;29;20476;-73
2024/01/30 13:29:40;;;;;;;27.67;13.30;;;;;;;;;;4961831;29;20409;-78
2024/01/30 13:32:06;;;;;;;23.90;12.97;;;;;;;;;;4937252;29;20482;-77
2024/01/30 13:34:32;;;;;;;25.23;12.00;;;;;;;;;;4946488;29;20468;-77
2024/01/30 13:36:58;;;;;;;27.80;13.23;;;;;;;;;;4956792;29;20432;-78
2024/01/30 13:39:24;;;;;;;27.70;12.43;;;;;;;;;;4955810;29;20417;-78
2024/01/30 13:41:50;;;;;;;26.97;12.20;;;;;;;;;;4960189;29;20468;-77
2024/01/30 13:44:17;;;;;;;22.20;11.90;;;;;;;;;;4962244;29;20437;-78
2024/01/30 13:46:43;;;;;;;30.30;13.73;;;;;;;;;;4961097;28;20436;-78
2024/01/30 13:49:09;;;;;;;26.33;13.50;;;;;;;;;;4969740;29;20440;-79
2024/01/30 13:51:35;;;;;;;29.60;13.10;;;;;;;;;;4974482;28;20433;-78
2024/01/30 13:54:01;;;;;;;24.80;13.43;;;;;;;;;;4973498;29;20475;-78
2024/01/30 13:56:27;;;;;;;26.90;12.90;;;;;;;;;;4969645;29;20429;-80
2024/01/30 13:58:55;;;;;;;34.07;15.10;;;;;;;;;;4960340;29;20461;-79
2024/01/30 14:01:21;;;;;;;34.90;15.67;;;;;;;;;;4960272;28;20453;-80
2024/01/30 14:03:47;;;;;;;26.03;13.20;;;;;;;;;;4963666;29;20520;-80
2024/01/30 14:06:13;;;;;;;27.30;13.10;;;;;;;;;;4955672;29;20425;-80
2024/01/30 14:08:39;;;;;;;30.13;14.10;;;;;;;;;;4956689;29;20445;-79
2024/01/30 14:11:06;;;;;;;30.47;13.90;;;;;;;;;;4961204;29;20476;-80
2024/01/30 14:13:32;;;;;;;22.97;13.33;;;;;;;;;;4959119;29;20789;-81
2024/01/30 14:15:59;;;;;;;27.23;12.30;;;;;;;;;;4954864;29;20487;-81
2024/01/30 14:18:25;;;;;;;29.57;14.03;;;;;;;;;;4940092;29;20416;-79
2024/01/30 14:20:51;;;;;;;27.00;14.67;;;;;;;;;;4944208;29;20813;-79
2024/01/30 14:23:18;;;;;;;30.23;12.60;;;;;;;;;;4959782;29;20472;-79
2024/01/30 14:25:44;;;;;;;28.60;14.90;;;;;;;;;;4955790;29;20421;-80
2024/01/30 14:28:10;;;;;;;26.73;12.93;;;;;;;;;;4939052;29;20449;-79
2024/01/30 14:30:36;;;;;;;28.03;14.23;;;;;;;;;;4941592;29;20812;-79
2024/01/30 14:33:02;;;;;;;25.50;15.30;;;;;;;;;;4956307;29;20420;-79
2024/01/30 14:35:28;;;;;;;33.20;15.17;;;;;;;;;;4957099;29;20904;-78
2024/01/30 14:37:54;;;;;;;27.20;13.97;;;;;;;;;;4956598;29;20503;-79
2024/01/30 14:40:20;;;;;;;22.17;13.53;;;;;;;;;;4956025;29;20754;-79
2024/01/30 14:42:46;;;;;;;28.30;13.40;;;;;;;;;;4957973;28;20468;-81
2024/01/30 14:45:12;;;;;;;26.53;13.00;;;;;;;;;;4959961;29;20421;-81
2024/01/30 14:47:38;;;;;;;25.53;13.53;;;;;;;;;;4961951;29;20451;-81
2024/01/30 14:50:05;;;;;;;27.33;12.93;;;;;;;;;;4958511;29;20416;-79
2024/01/30 14:52:31;;;;;;;28.80;13.87;;;;;;;;;;4958423;29;20514;-78
2024/01/30 14:54:57;;;;;;;21.97;12.87;;;;;;;;;;4959453;29;20467;-79
2024/01/30 14:57:23;;;;;;;27.93;13.57;;;;;;;;;;4976752;28;20453;-80
2024/01/30 14:59:49;;;;;;;23.23;12.60;;;;;;;;;;4961733;29;20412;-80
2024/01/30 15:02:15;;;;;;;19.63;12.10;;;;;;;;;;4953383;29;20457;-79
2024/01/30 15:04:41;;;;;;;23.83;12.60;;;;;;;;;;4938913;29;20424;-81
2024/01/30 15:07:08;;;;;;;20.20;12.30;;;;;;;;;;4950047;29;20439;-81
2024/01/30 15:09:34;;;;;;;22.20;11.20;;;;;;;;;;4957688;29;20500;-80
2024/01/30 15:11:59;;;;;;;19.50;11.27;;;;;;;;;;4956725;29;20465;-78
2024/01/30 15:14:25;;;;;;;26.47;11.90;;;;;;;;;;4955407;29;20483;-80
2024/01/30 15:16:51;;;;;;;25.93;12.63;;;;;;;;;;4952973;29;20440;-79
2024/01/30 15:19:17;;;;;;;22.70;12.00;;;;;;;;;;4937757;29;20421;-79
2024/01/30 15:21:43;;;;;;;27.87;12.67;;;;;;;;;;4947860;29;20724;-80
2024/01/30 15:24:12;;;;;;;26.67;12.37;;;;;;;;;;4955362;29;20460;-81
2024/01/30 15:26:38;;;;;;;18.13;11.70;;;;;;;;;;4956910;28;20413;-80
2024/01/30 15:29:04;;;;;;;26.60;11.63;;;;;;;;;;4954827;29;20413;-79
2024/01/30 15:31:30;;;;;;;18.17;10.47;;;;;;;;;;4955374;29;20445;-79
2024/01/30 15:33:57;;;;;;;23.77;11.37;;;;;;;;;;4955635;29;20829;-78
2024/01/30 15:36:23;;;;;;;24.10;12.70;;;;;;;;;;4956025;28;20424;-78
2024/01/30 15:38:49;;;;;;;19.50;11.77;;;;;;;;;;4955765;29;20424;-80
2024/01/30 15:41:15;;;;;;;26.67;12.90;;;;;;;;;;4957830;28;20521;-79
2024/01/30 15:43:41;;;;;;;22.30;10.67;;;;;;;;;;4956405;29;20420;-79
2024/01/30 15:46:07;;;;;;;25.87;11.10;;;;;;;;;;4953487;29;20457;-80
2024/01/30 15:48:33;;;;;;;17.23;10.40;;;;;;;;;;4953930;28;20579;-80
2024/01/30 15:50:59;;;;;;;18.93;10.57;;;;;;;;;;4945323;29;20455;-80
2024/01/30 15:53:27;;;;;;;18.10;10.17;;;;;;;;;;4971056;28;20492;-80
2024/01/30 15:55:53;;;;;;;21.30;11.50;;;;;;;;;;4971446;29;20417;-80
2024/01/30 15:58:19;;;;;;;29.60;12.37;;;;;;;;;;4961644;29;20401;-79
2024/01/30 16:00:45;;;;;;;18.30;11.47;;;;;;;;;;4958429;28;20574;-79
2024/01/30 16:03:11;;;;;;;25.80;11.93;;;;;;;;;;4957436;29;20952;-79
2024/01/30 16:05:37;;;;;;;22.57;11.10;;;;;;;;;;4958311;29;20420;-78
2024/01/30 16:08:03;;;;;;;17.80;10.40;;;;;;;;;;4956866;29;20777;-78
2024/01/30 16:10:29;;;;;;;17.50;11.43;;;;;;;;;;4958407;28;20435;-80
2024/01/30 16:12:55;;;;;;;18.50;11.60;;;;;;;;;;4955042;29;20770;-77
2024/01/30 16:15:22;;;;;;;21.60;11.27;;;;;;;;;;4937473;29;20818;-77
2024/01/30 16:17:48;;;;;;;29.17;12.97;;;;;;;;;;4954327;29;20417;-78
2024/01/30 16:20:14;;;;;;;20.93;12.07;;;;;;;;;;4957528;28;20513;-78
2024/01/30 16:22:40;;;;;;;22.60;11.20;;;;;;;;;;4958459;29;20417;-79
2024/01/30 16:25:06;;;;;;;21.53;11.20;;;;;;;;;;4960844;29;20424;-79
2024/01/30 16:27:32;;;;;;;20.23;10.53;;;;;;;;;;4959440;29;20421;-74
2024/01/30 16:29:58;;;;;;;22.23;11.77;;;;;;;;;;4955704;29;20428;-74
2024/01/30 16:32:24;;;;;;;20.37;10.87;;;;;;;;;;4956379;28;20802;-72
2024/01/30 16:34:50;;;;;;;23.63;11.73;;;;;;;;;;4955687;29;20456;-72
2024/01/30 16:37:16;;;;;;;26.87;13.80;;;;;;;;;;4956771;29;20412;-72
2024/01/30 16:39:43;;;;;;;26.80;12.63;;;;;;;;;;4956318;29;20417;-72
2024/01/30 16:42:09;;;;;;;27.20;12.10;;;;;;;;;;4955675;28;20432;-72
2024/01/30 16:44:35;;;;;;;25.07;11.60;;;;;;;;;;4955689;29;20424;-72
2024/01/30 16:47:01;;;;;;;20.00;11.17;;;;;;;;;;4955529;29;20416;-72
2024/01/30 16:49:27;;;;;;;26.37;12.50;;;;;;;;;;4954287;29;20886;-72
2024/01/30 16:51:53;;;;;;;23.43;12.90;;;;;;;;;;4956120;28;20459;-72
2024/01/30 16:54:19;;;;;;;31.30;12.63;;;;;;;;;;4955498;29;20460;-72
2024/01/30 16:56:47;;;;;;;26.30;12.60;;;;;;;;;;4955491;29;20445;-72
2024/01/30 16:59:14;;;;;;;24.23;12.00;;;;;;;;;;4955038;28;20467;-73
2024/01/30 17:01:44;;;;;;;25.53;11.93;;;;;;;;;;4955014;28;20799;-73
2024/01/30 17:04:10;;;;;;;17.83;11.23;;;;;;;;;;4949488;28;20444;-73
2024/01/30 17:06:36;;;;;;;19.77;10.80;;;;;;;;;;4953769;28;20476;-73
2024/01/30 17:09:02;;;;;;;21.63;11.10;;;;;;;;;;4953876;29;20507;-74
2024/01/30 17:11:28;;;;;;;29.40;11.77;;;;;;;;;;4955065;28;20936;-73
2024/01/30 17:13:54;;;;;;;27.37;12.80;;;;;;;;;;4954278;29;20829;-74
2024/01/30 17:16:20;;;;;;;28.40;12.07;;;;;;;;;;4956332;29;20409;-80
2024/01/30 17:18:46;;;;;;;20.93;12.20;;;;;;;;;;4956906;29;20413;-78
2024/01/30 17:21:19;;;;;;;24.57;11.97;;;;;;;;;;4957073;29;20431;-79
2024/01/30 17:23:45;;;;;;;23.57;13.00;;;;;;;;;;4956376;29;20429;-79
2024/01/30 17:26:11;;;;;;;28.83;12.87;;;;;;;;;;4961826;29;20417;-81
2024/01/30 17:28:37;;;;;;;28.07;13.07;;;;;;;;;;4968717;29;20417;-80
2024/01/30 17:31:03;;;;;;;22.80;11.80;;;;;;;;;;4959992;29;20428;-81
2024/01/30 17:33:29;;;;;;;27.53;12.10;;;;;;;;;;4957553;29;20472;-80
2024/01/30 17:35:55;;;;;;;26.83;12.80;;;;;;;;;;4958597;29;20551;-80
2024/01/30 17:38:21;;;;;;;35.13;14.80;;;;;;;;;;4956133;29;20417;-79
2024/01/30 17:40:47;;;;;;;25.97;14.50;;;;;;;;;;4956605;29;20428;-79
2024/01/30 17:43:13;;;;;;;27.63;13.40;;;;;;;;;;4954961;29;20788;-79
2024/01/30 17:45:39;;;;;;;28.20;12.90;;;;;;;;;;4957091;28;20413;-81
2024/01/30 17:48:05;;;;;;;26.03;13.53;;;;;;;;;;4955996;29;20404;-73
2024/01/30 17:50:31;;;;;;;26.10;13.00;;;;;;;;;;4954530;29;20445;-73
2024/01/30 17:52:57;;;;;;;22.87;11.80;;;;;;;;;;4954698;29;20424;-73
2024/01/30 17:55:24;;;;;;;25.27;11.97;;;;;;;;;;4954551;29;20457;-73
2024/01/30 17:57:50;;;;;;;21.70;11.87;;;;;;;;;;4954056;28;20755;-74
2024/01/30 18:00:16;;;;;;;34.23;13.87;;;;;;;;;;4962171;28;20508;-74
2024/01/30 18:02:42;;;;;;;24.73;12.00;;;;;;;;;;4959178;28;20444;-72
2024/01/30 18:05:09;;;;;;;26.63;14.13;;;;;;;;;;4954334;29;20416;-73
2024/01/30 18:07:38;;;;;;;23.90;13.80;;;;;;;;;;4952799;29;20433;-73
2024/01/30 18:10:04;;;;;;;29.00;12.63;;;;;;;;;;4954481;28;20417;-74
2024/01/30 18:12:30;;;;;;;26.63;13.57;;;;;;;;;;4954445;29;20432;-72
2024/01/30 18:14:56;;;;;;;29.63;14.57;;;;;;;;;;4954041;29;20520;-73
2024/01/30 18:17:22;;;;;;;35.53;15.50;;;;;;;;;;4954270;28;20797;-73
2024/01/30 18:19:48;;;;;;;34.10;18.03;;;;;;;;;;4955179;29;20413;-81
2024/01/30 18:22:14;;;;;;;52.97;19.67;;;;;;;;;;4959976;29;20433;-80
2024/01/30 18:24:41;;;;;;;38.83;15.70;;;;;;;;;;4959683;29;20487;-80
2024/01/30 18:27:08;;;;;;;35.90;15.87;;;;;;;;;;4962858;28;20499;-79
2024/01/30 18:29:34;;;;;;;45.20;16.30;;;;;;;;;;4978387;28;20423;-79
2024/01/30 18:32:00;;;;;;;37.97;19.20;;;;;;;;;;4979516;28;20435;-81
2024/01/30 18:34:26;;;;;;;48.90;20.07;;;;;;;;;;4974638;28;20535;-79
2024/01/30 18:36:52;;;;;;;44.87;19.50;;;;;;;;;;4975731;28;20498;-79
2024/01/30 18:39:18;;;;;;;44.73;18.03;;;;;;;;;;4975561;28;20407;-78
2024/01/30 18:41:44;;;;;;;44.00;18.33;;;;;;;;;;4973913;28;20434;-73
2024/01/30 18:44:10;;;;;;;43.33;17.03;;;;;;;;;;4973451;28;20804;-73
2024/01/30 18:46:36;;;;;;;37.33;17.00;;;;;;;;;;4972927;28;20411;-77
2024/01/30 18:49:02;;;;;;;33.57;16.60;;;;;;;;;;4975600;28;20420;-79
2024/01/30 18:51:28;;;;;;;36.60;16.90;;;;;;;;;;4974197;28;20443;-78
2024/01/30 18:53:54;;;;;;;36.80;17.27;;;;;;;;;;4965509;28;20464;-79
2024/01/30 18:56:20;;;;;;;32.93;17.13;;;;;;;;;;4963360;29;20416;-78
2024/01/30 18:58:47;;;;;;;35.57;19.00;;;;;;;;;;4961928;28;20437;-77
2024/01/30 19:01:13;;;;;;;32.70;16.80;;;;;;;;;;4954701;29;20976;-77
2024/01/30 19:03:39;;;;;;;43.07;17.90;;;;;;;;;;4953554;28;20500;-78
2024/01/30 19:06:05;;;;;;;36.07;16.93;;;;;;;;;;4963849;29;20468;-78
2024/01/30 19:08:31;;;;;;;37.00;17.27;;;;;;;;;;4957851;29;20415;-77
2024/01/30 19:10:57;;;;;;;52.73;17.97;;;;;;;;;;4951482;28;20428;-77
2024/01/30 19:13:23;;;;;;;45.90;17.27;;;;;;;;;;4953794;29;20409;-77
2024/01/30 19:15:49;;;;;;;41.77;18.10;;;;;;;;;;4951593;29;20552;-77
2024/01/30 19:18:15;;;;;;;61.87;20.87;;;;;;;;;;4953535;28;20416;-78
2024/01/30 19:20:41;;;;;;;38.33;17.53;;;;;;;;;;4954274;28;21046;-78
2024/01/30 19:23:07;;;;;;;37.30;18.67;;;;;;;;;;4955126;29;20405;-78
2024/01/30 19:25:33;;;;;;;55.23;21.53;;;;;;;;;;4954535;29;20412;-78
2024/01/30 19:27:59;;;;;;;47.47;19.60;;;;;;;;;;4952817;28;20441;-78
2024/01/30 19:30:26;;;;;;;41.53;18.53;;;;;;;;;;4956628;28;20423;-79
2024/01/30 19:32:52;;;;;;;39.90;17.30;;;;;;;;;;4957611;29;20500;-79
2024/01/30 19:35:18;;;;;;;49.07;19.70;;;;;;;;;;4956710;29;20584;-79
2024/01/30 19:37:44;;;;;;;59.53;20.43;;;;;;;;;;4955247;29;20481;-79
2024/01/30 19:40:10;;;;;;;40.07;19.17;;;;;;;;;;4957685;28;20416;-77
2024/01/30 19:42:36;;;;;;;33.13;16.57;;;;;;;;;;4956996;29;20520;-80
2024/01/30 19:45:03;;;;;;;37.47;17.60;;;;;;;;;;4958150;29;20420;-79
2024/01/30 19:47:29;;;;;;;42.40;17.50;;;;;;;;;;4958142;29;20455;-79
2024/01/30 19:49:55;;;;;;;35.40;16.60;;;;;;;;;;4956545;29;20412;-78
2024/01/30 19:52:21;;;;;;;41.50;17.73;;;;;;;;;;4956608;28;20443;-77
2024/01/30 19:54:47;;;;;;;38.23;17.90;;;;;;;;;;4956563;29;20490;-77
2024/01/30 19:57:13;;;;;;;39.03;17.10;;;;;;;;;;4956275;29;20829;-77
2024/01/30 19:59:38;;;;;;;42.20;18.40;;;;;;;;;;4957727;29;20439;-80
2024/01/30 20:02:04;;;;;;;39.77;18.67;;;;;;;;;;4959914;28;20776;-80
2024/01/30 20:04:30;;;;;;;43.40;18.03;;;;;;;;;;4960465;28;20859;-82
2024/01/30 20:06:56;;;;;;;44.40;19.23;;;;;;;;;;4956728;29;20980;-79
2024/01/30 20:09:25;;;;;;;55.10;20.77;;;;;;;;;;4955964;28;20428;-79
2024/01/30 20:11:51;;;;;;;43.77;16.93;;;;;;;;;;4953895;29;20461;-79